Martha, OK (73556)

2:30 AM CDT on September 22, 2014 (GMT -0500)
Corbin & Russell Addition | Change Station
CLOSE
Current Station
Personal Weather Station
Location: Altus, OK
Elevation: 1407 ft
Nearby Weather Stations

Elev 1407 ft 34.65 °N, 99.34 °W | Updated 3 seconds ago

Partly Cloudy
Partly Cloudy
71.4 °F
Feels Like 76 °F
N
1.0
Wind Variable Wind from North
Gusts 1.0 mph

Today
High -- | Low -- °F
--% Chance of Precip.
Yesterday
High -- | Low -- °F
Precip. -- in
7:25 AM 7:34 PM
Waning Crescent, 4% visible
Pressure 30.22 in
Visibility 10.0 miles
Clouds Scattered Clouds 7000 ft
Heat Index 76 °F
Dew Point 55 °F
Humidity 56%
Rainfall 0.00 in
Snow Depth Not available.
UV 0 out of 12
Pollen 10.20 out of 12
Air Quality Not available.
Flu Activity Not available.
METAR KAXS 220715Z AUTO 07006KT 10SM SCT070 22/11 A3022 RMK AO2 T02230108

More Conditions Fewer Conditions

Pressure 30.22 in
Visibility 10.0 miles
Clouds Scattered Clouds 7000 ft
Heat Index 76 °F
Dew Point 55 °F
Humidity 56%
Rainfall 0.00 in
Snow Depth Not available.
UV 0 out of 12
Pollen 10.20 out of 12
Air Quality Not available.
Flu Activity Not available.
METAR KAXS 220715Z AUTO 07006KT 10SM SCT070 22/11 A3022 RMK AO2 T02230108

More Conditions Fewer Conditions

10-Day Weather Forecast

Almanac

Astronomy

Sep. 22, 2014 Rise Set
Actual Time 7:25 AM CDT 7:34 PM CDT
Civil Twilight 7:00 AM CDT 7:59 PM CDT
Nautical Twilight 6:31 AM CDT 8:28 PM CDT
Astronomical Twilight 6:01 AM CDT 8:58 PM CDT
Moon 5:58 AM CDT 6:41 PM CDT
Length of Visible Light 12h 58m
Length of Day
12h 08m
Tomorrow will be 2m 10s shorter.
Waning Crescent, 4% of the Moon is Illuminated
Today
Waning Crescent
Sep 24
New
Oct 1
First Quarter
Oct 8
Full
Oct 15
Last Quarter

Today's Extremes

State Highs State Lows

Community

WunderPhotos

Upload Photos

1,755,392 photos uploaded!

Nearby

Snow Depth

Station Depth Elevation
No new snow has been reported.

Earthquake Activity

City Distance Mag. Time & Date
Guthrie, Oklahoma 134 miles 3.6 12:23 PM CDT
2014-09-19
Medford, Oklahoma 162 miles 4.0 8:31 PM CDT
2014-09-18
Guthrie, Oklahoma 135 miles 3.0 7:08 PM CDT
2014-09-18
Medford, Oklahoma 162 miles 3.0 5:28 AM CDT
2014-09-18
Minimum magnitude displayed is 2.5.

Coastal Water Temperatures

Place Temperature
No Stations Reporting

Nearby Weather Stations